• Join FlightAware (Why Join?)
  • Login
  • US Flag 
08:26PM EST


 

Airport Tracker/Info


-or-


 

Live Flight TrackerFlight Track Log ✈ QXE2086 ✈ 01-Nov-2013 ✈ KSEA - KALW

Flight Track Log - Related Links

Times and Time Zones

All times are in EDT time to prevent confusion due to time zone crossing. See the QXE2086 flight status page for this flight to view local times or setup timezone preferences in your user account.

Time Position Orientation Groundspeed Altitude Reporting Facility
EDT Latitude Longitude Course Direction KTS MPH feet Rate Location/Type
10:36PM 47.2489 -121.6741 106° East  Level Estimated
10:37PM 47.2150 -121.5683 109° East  Level Estimated
10:38PM 47.1955 -121.4550 104° East  Level FlightAware Approximate
10:39PM 47.1759 -121.3417 104° East  Level FlightAware Approximate
10:40PM 47.1561 -121.2286 104° East  Level FlightAware Approximate
10:41PM 47.1204 -121.1243 109° East  Level Estimated
10:42PM 47.0998 -121.0116 105° East  Level FlightAware Approximate
10:43PM 47.0791 -120.8990 105° East  Level FlightAware Approximate
10:44PM 47.0583 -120.7865 105° East  Level FlightAware Approximate
10:45PM 47.0374 -120.6740 105° East  Level FlightAware Approximate
10:46PM 47.0016 -120.5796 138° Southeast  Level Estimated
10:47PM 46.9718 -120.4809 114° Southeast  Level FlightAware Approximate
10:48PM 46.9420 -120.3822 114° Southeast  Level FlightAware Approximate
10:49PM 46.9055 -120.2886 139° Southeast  Level Estimated
10:50PM 46.8686 -120.1953 120° Southeast  Level FlightAware Approximate
10:51PM 46.8317 -120.1022 120° Southeast  Level FlightAware Approximate
10:52PM 46.7950 -120.0089 143° Southeast  Level Estimated
10:53PM 46.7548 -119.9073 121° Southeast  Level Estimated
10:54PM 46.7761 -119.7942 75° East  Level FlightAware Approximate
10:55PM 46.7320 -119.6942 126° Southeast  Level Estimated
10:56PM 46.6956 -119.5879 116° Southeast  Level FlightAware Approximate
10:57PM 46.6591 -119.4817 117° Southeast  Level FlightAware Approximate
10:58PM 46.6226 -119.3757 117° Southeast  Level FlightAware Approximate
10:59PM 46.5859 -119.2698 117° Southeast  Level FlightAware Approximate
11:00PM 46.5480 -119.1647 145° Southeast  Level FlightAware Approximate
11:01PM 46.4936 -119.0771 128° Southeast  Level FlightAware Approximate
11:02PM 46.4428 -118.9840 128° Southeast  Level FlightAware Approximate
11:03PM 46.3943 -118.8884 126° Southeast  Level FlightAware Approximate
11:04PM 46.3464 -118.7924 126° Southeast  Level FlightAware Approximate
11:05PM 46.2984 -118.6965 123° Southeast  Level FlightAware Approximate
11:06PM 46.2542 -118.5969 123° Southeast  Level FlightAware Approximate
11:07PM 46.1984 -118.5135 126° Southeast  Level FlightAware Approximate
11:08PM 46.1505 -118.4177 126° Southeast  Level FlightAware Approximate
11:09PM 46.1027 -118.3220 126° Southeast  Level FlightAware Approximate
11:10PM 46.0948 -118.2890 126° Southeast  Level Estimated
11:11PM 46.0948 -118.2890 126° Southeast  Level Estimated
11:12PM 46.0948 -118.2890 126° Southeast  Level Estimated
11:13PM 46.0948 -118.2890 126° Southeast  Level Estimated